sensor_id;sensor_type;location;lat;lon;timestamp;pressure;altitude;pressure_sealevel;temperature;humidity
71857;BME280;63344;46.980;28.882;2023-04-06T00:01:17;99610.28;;;1.82;96.29
71857;BME280;63344;46.980;28.882;2023-04-06T00:03:44;99621.56;;;1.85;96.25
71857;BME280;63344;46.980;28.882;2023-04-06T00:06:12;99613.78;;;1.82;96.09
71857;BME280;63344;46.980;28.882;2023-04-06T00:08:42;99622.47;;;1.84;96.27
71857;BME280;63344;46.980;28.882;2023-04-06T00:11:09;99612.88;;;1.83;96.34
71857;BME280;63344;46.980;28.882;2023-04-06T00:13:37;99615.44;;;1.88;95.89
71857;BME280;63344;46.980;28.882;2023-04-06T00:16:04;99608.56;;;1.82;96.06
71857;BME280;63344;46.980;28.882;2023-04-06T00:18:32;99594.50;;;1.88;95.90
71857;BME280;63344;46.980;28.882;2023-04-06T00:20:59;99603.22;;;1.87;95.94
71857;BME280;63344;46.980;28.882;2023-04-06T00:23:27;99609.34;;;1.86;96.06
71857;BME280;63344;46.980;28.882;2023-04-06T00:25:54;99592.75;;;1.87;96.21
71857;BME280;63344;46.980;28.882;2023-04-06T00:28:23;99599.72;;;1.88;95.70
71857;BME280;63344;46.980;28.882;2023-04-06T00:30:53;99588.34;;;1.89;95.89
71857;BME280;63344;46.980;28.882;2023-04-06T00:33:22;99591.91;;;1.86;96.28
71857;BME280;63344;46.980;28.882;2023-04-06T00:35:50;99583.13;;;1.87;96.13
71857;BME280;63344;46.980;28.882;2023-04-06T00:38:19;99590.16;;;1.85;96.10
71857;BME280;63344;46.980;28.882;2023-04-06T00:40:53;99594.53;;;1.85;96.42
71857;BME280;63344;46.980;28.882;2023-04-06T00:43:20;99590.28;;;1.79;96.63
71857;BME280;63344;46.980;28.882;2023-04-06T00:45:47;99555.41;;;1.78;96.51
71857;BME280;63344;46.980;28.882;2023-04-06T00:48:16;99579.88;;;1.76;96.77
71857;BME280;63344;46.980;28.882;2023-04-06T00:50:43;99582.53;;;1.74;97.00
71857;BME280;63344;46.980;28.882;2023-04-06T00:53:10;99586.91;;;1.74;97.66
71857;BME280;63344;46.980;28.882;2023-04-06T00:55:38;99579.94;;;1.73;96.89
71857;BME280;63344;46.980;28.882;2023-04-06T00:58:29;99567.75;;;1.72;97.40
71857;BME280;63344;46.980;28.882;2023-04-06T01:00:57;99571.25;;;1.71;97.06
71857;BME280;63344;46.980;28.882;2023-04-06T01:03:25;99545.06;;;1.71;97.47
71857;BME280;63344;46.980;28.882;2023-04-06T01:05:52;99570.31;;;1.73;97.65
71857;BME280;63344;46.980;28.882;2023-04-06T01:08:25;99542.47;;;1.71;97.69
71857;BME280;63344;46.980;28.882;2023-04-06T01:10:52;99559.00;;;1.73;97.55
71857;BME280;63344;46.980;28.882;2023-04-06T01:13:21;99558.13;;;1.72;97.74
71857;BME280;63344;46.980;28.882;2023-04-06T01:15:49;99544.22;;;1.70;97.63
71857;BME280;63344;46.980;28.882;2023-04-06T01:18:16;99565.97;;;1.74;97.59
71857;BME280;63344;46.980;28.882;2023-04-06T01:20:43;99557.22;;;1.73;97.60
71857;BME280;63344;46.980;28.882;2023-04-06T01:23:11;99574.69;;;1.73;97.76
71857;BME280;63344;46.980;28.882;2023-04-06T01:25:37;99569.41;;;1.76;97.95
71857;BME280;63344;46.980;28.882;2023-04-06T01:28:05;99560.69;;;1.75;98.18
71857;BME280;63344;46.980;28.882;2023-04-06T01:30:32;99568.53;;;1.75;97.77
71857;BME280;63344;46.980;28.882;2023-04-06T01:32:59;99574.59;;;1.77;97.82
71857;BME280;63344;46.980;28.882;2023-04-06T01:35:27;99567.63;;;1.78;97.53
71857;BME280;63344;46.980;28.882;2023-04-06T01:37:55;99571.97;;;1.79;97.74
71857;BME280;63344;46.980;28.882;2023-04-06T01:40:22;99568.47;;;1.78;97.72
71857;BME280;63344;46.980;28.882;2023-04-06T01:42:49;99552.78;;;1.78;97.18
71857;BME280;63344;46.980;28.882;2023-04-06T01:45:17;99551.94;;;1.78;97.27
71857;BME280;63344;46.980;28.882;2023-04-06T01:47:44;99537.06;;;1.78;97.01
71857;BME280;63344;46.980;28.882;2023-04-06T01:50:12;99566.72;;;1.79;97.12
71857;BME280;63344;46.980;28.882;2023-04-06T01:52:40;99555.41;;;1.77;97.03
71857;BME280;63344;46.980;28.882;2023-04-06T01:55:08;99569.41;;;1.76;97.21
71857;BME280;63344;46.980;28.882;2023-04-06T01:57:35;99575.44;;;1.79;97.18
71857;BME280;63344;46.980;28.882;2023-04-06T02:00:03;99576.34;;;1.78;97.26
71857;BME280;63344;46.980;28.882;2023-04-06T02:02:30;99571.13;;;1.77;97.15
71857;BME280;63344;46.980;28.882;2023-04-06T02:04:57;99560.63;;;1.78;97.19
71857;BME280;63344;46.980;28.882;2023-04-06T02:07:25;99551.00;;;1.79;97.31
71857;BME280;63344;46.980;28.882;2023-04-06T02:09:55;99572.81;;;1.79;97.28
71857;BME280;63344;46.980;28.882;2023-04-06T02:12:23;99578.09;;;1.78;97.00
71857;BME280;63344;46.980;28.882;2023-04-06T02:14:50;99555.41;;;1.78;97.33
71857;BME280;63344;46.980;28.882;2023-04-06T02:17:18;99553.66;;;1.77;97.07
71857;BME280;63344;46.980;28.882;2023-04-06T02:19:46;99559.72;;;1.79;97.16
71857;BME280;63344;46.980;28.882;2023-04-06T02:22:16;99558.84;;;1.81;96.90
71857;BME280;63344;46.980;28.882;2023-04-06T02:24:49;99573.69;;;1.80;97.04
71857;BME280;63344;46.980;28.882;2023-04-06T02:27:17;99549.25;;;1.79;96.92
71857;BME280;63344;46.980;28.882;2023-04-06T02:29:45;99543.16;;;1.79;96.86
71857;BME280;63344;46.980;28.882;2023-04-06T02:32:31;99541.41;;;1.79;97.04
71857;BME280;63344;46.980;28.882;2023-04-06T02:34:59;99551.00;;;1.81;96.98
71857;BME280;63344;46.980;28.882;2023-04-06T02:37:27;99553.63;;;1.79;96.61
71857;BME280;63344;46.980;28.882;2023-04-06T02:40:03;99554.50;;;1.79;97.04
71857;BME280;63344;46.980;28.882;2023-04-06T02:42:33;99546.59;;;1.83;96.71
71857;BME280;63344;46.980;28.882;2023-04-06T02:45:00;99550.91;;;1.84;96.81
71857;BME280;63344;46.980;28.882;2023-04-06T02:47:27;99543.06;;;1.84;96.55
71857;BME280;63344;46.980;28.882;2023-04-06T02:49:54;99540.38;;;1.87;96.84
71857;BME280;63344;46.980;28.882;2023-04-06T02:52:21;99550.75;;;1.91;95.98
71857;BME280;63344;46.980;28.882;2023-04-06T02:54:49;99562.13;;;1.90;96.05
71857;BME280;63344;46.980;28.882;2023-04-06T02:57:17;99533.31;;;1.92;96.09
71857;BME280;63344;46.980;28.882;2023-04-06T02:59:45;99563.84;;;1.91;95.66
71857;BME280;63344;46.980;28.882;2023-04-06T03:02:12;99552.47;;;1.94;95.71
71857;BME280;63344;46.980;28.882;2023-04-06T03:04:39;99556.81;;;1.93;95.71
71857;BME280;63344;46.980;28.882;2023-04-06T03:07:07;99552.47;;;1.94;95.89
71857;BME280;63344;46.980;28.882;2023-04-06T03:09:36;99563.81;;;1.94;96.04
71857;BME280;63344;46.980;28.882;2023-04-06T03:12:04;99558.53;;;1.96;95.81
71857;BME280;63344;46.980;28.882;2023-04-06T03:14:34;99561.03;;;2.02;95.43
71857;BME280;63344;46.980;28.882;2023-04-06T03:17:01;99573.28;;;2.00;95.43
71857;BME280;63344;46.980;28.882;2023-04-06T03:19:29;99564.53;;;1.99;95.38
71857;BME280;63344;46.980;28.882;2023-04-06T03:21:57;99581.09;;;2.02;95.14
71857;BME280;63344;46.980;28.882;2023-04-06T03:24:25;99567.22;;;1.98;94.69
71857;BME280;63344;46.980;28.882;2023-04-06T03:26:52;99581.09;;;2.02;95.12
71857;BME280;63344;46.980;28.882;2023-04-06T03:29:20;99577.63;;;2.01;94.91
71857;BME280;63344;46.980;28.882;2023-04-06T03:31:47;99581.09;;;2.02;95.01
71857;BME280;63344;46.980;28.882;2023-04-06T03:34:14;99581.09;;;2.02;94.91
71857;BME280;63344;46.980;28.882;2023-04-06T03:36:41;99588.91;;;2.03;95.02
71857;BME280;63344;46.980;28.882;2023-04-06T03:39:09;99595.91;;;2.04;94.90
71857;BME280;63344;46.980;28.882;2023-04-06T03:41:36;99591.50;;;2.06;95.24
71857;BME280;63344;46.980;28.882;2023-04-06T03:44:05;99588.88;;;2.06;94.85
71857;BME280;63344;46.980;28.882;2023-04-06T03:46:32;99587.94;;;2.09;94.59
71857;BME280;63344;46.980;28.882;2023-04-06T03:49:00;99581.84;;;2.08;94.39
71857;BME280;63344;46.980;28.882;2023-04-06T03:51:27;99587.94;;;2.09;94.19
71857;BME280;63344;46.980;28.882;2023-04-06T03:53:54;99582.75;;;2.06;94.14
71857;BME280;63344;46.980;28.882;2023-04-06T03:56:21;99612.34;;;2.11;93.76
71857;BME280;63344;46.980;28.882;2023-04-06T03:58:49;99614.06;;;2.12;93.94
71857;BME280;63344;46.980;28.882;2023-04-06T04:01:17;99599.25;;;2.09;93.96
71857;BME280;63344;46.980;28.882;2023-04-06T04:03:48;99615.81;;;2.11;93.83
71857;BME280;63344;46.980;28.882;2023-04-06T04:06:17;99607.03;;;2.14;93.62
71857;BME280;63344;46.980;28.882;2023-04-06T04:08:48;99620.09;;;2.15;93.20
71857;BME280;63344;46.980;28.882;2023-04-06T04:11:16;99620.97;;;2.16;92.85
71857;BME280;63344;46.980;28.882;2023-04-06T04:13:43;99629.72;;;2.15;93.13
71857;BME280;63344;46.980;28.882;2023-04-06T04:16:10;99612.19;;;2.17;93.35
71857;BME280;63344;46.980;28.882;2023-04-06T04:18:38;99610.41;;;2.19;93.18
71857;BME280;63344;46.980;28.882;2023-04-06T04:21:05;99622.66;;;2.18;92.75
71857;BME280;63344;46.980;28.882;2023-04-06T04:23:32;99614.78;;;2.18;92.80
71857;BME280;63344;46.980;28.882;2023-04-06T04:26:02;99623.59;;;2.16;92.78
71857;BME280;63344;46.980;28.882;2023-04-06T04:28:30;99623.63;;;2.13;93.19
71857;BME280;63344;46.980;28.882;2023-04-06T04:30:59;99591.34;;;2.12;93.19
71857;BME280;63344;46.980;28.882;2023-04-06T04:33:28;99611.41;;;2.13;93.41
71857;BME280;63344;46.980;28.882;2023-04-06T04:35:55;99623.59;;;2.16;93.24
71857;BME280;63344;46.980;28.882;2023-04-06T04:38:23;99634.91;;;2.18;93.49
71857;BME280;63344;46.980;28.882;2023-04-06T04:40:50;99626.16;;;2.17;93.29
71857;BME280;63344;46.980;28.882;2023-04-06T04:43:17;99636.63;;;2.17;93.43
71857;BME280;63344;46.980;28.882;2023-04-06T04:45:44;99618.28;;;2.17;93.68
71857;BME280;63344;46.980;28.882;2023-04-06T04:48:12;99614.91;;;2.14;93.53
71857;BME280;63344;46.980;28.882;2023-04-06T04:50:39;99615.66;;;2.19;93.91
71857;BME280;63344;46.980;28.882;2023-04-06T04:53:07;99620.03;;;2.18;94.11
71857;BME280;63344;46.980;28.882;2023-04-06T04:55:35;99622.69;;;2.17;93.92
71857;BME280;63344;46.980;28.882;2023-04-06T04:58:02;99634.91;;;2.16;93.98
71857;BME280;63344;46.980;28.882;2023-04-06T05:00:29;99613.13;;;2.16;94.16
71857;BME280;63344;46.980;28.882;2023-04-06T05:02:57;99629.72;;;2.15;94.30
71857;BME280;63344;46.980;28.882;2023-04-06T05:05:24;99636.59;;;2.21;94.47
71857;BME280;63344;46.980;28.882;2023-04-06T05:07:53;99625.16;;;2.23;94.43
71857;BME280;63344;46.980;28.882;2023-04-06T05:10:21;99637.44;;;2.21;94.21
71857;BME280;63344;46.980;28.882;2023-04-06T05:12:49;99626.09;;;2.22;94.68
71857;BME280;63344;46.980;28.882;2023-04-06T05:15:16;99630.38;;;2.25;94.68
71857;BME280;63344;46.980;28.882;2023-04-06T05:17:43;99633.81;;;2.28;94.11
71857;BME280;63344;46.980;28.882;2023-04-06T05:20:11;99637.28;;;2.29;94.59
71857;BME280;63344;46.980;28.882;2023-04-06T05:22:40;99634.63;;;2.30;94.24
71857;BME280;63344;46.980;28.882;2023-04-06T05:25:07;99633.78;;;2.30;94.42
71857;BME280;63344;46.980;28.882;2023-04-06T05:27:35;99634.63;;;2.30;94.28
71857;BME280;63344;46.980;28.882;2023-04-06T05:30:02;99638.09;;;2.32;94.79
71857;BME280;63344;46.980;28.882;2023-04-06T05:32:36;99629.31;;;2.33;94.51
71857;BME280;63344;46.980;28.882;2023-04-06T05:35:03;99625.00;;;2.32;94.30
71857;BME280;63344;46.980;28.882;2023-04-06T05:37:31;99632.03;;;2.30;94.40
71857;BME280;63344;46.980;28.882;2023-04-06T05:39:58;99639.03;;;2.28;94.58
71857;BME280;63344;46.980;28.882;2023-04-06T05:42:27;99635.63;;;2.25;94.57
71857;BME280;63344;46.980;28.882;2023-04-06T05:44:56;99644.41;;;2.22;94.54
71857;BME280;63344;46.980;28.882;2023-04-06T05:47:24;99639.97;;;2.26;94.34
71857;BME280;63344;46.980;28.882;2023-04-06T05:49:51;99632.03;;;2.29;94.42
71857;BME280;63344;46.980;28.882;2023-04-06T05:52:18;99630.34;;;2.26;94.25
71857;BME280;63344;46.980;28.882;2023-04-06T05:54:46;99636.41;;;2.30;94.66
71857;BME280;63344;46.980;28.882;2023-04-06T05:57:13;99635.44;;;2.34;94.43
71857;BME280;63344;46.980;28.882;2023-04-06T05:59:43;99634.50;;;2.36;94.25
71857;BME280;63344;46.980;28.882;2023-04-06T06:02:11;99637.16;;;2.35;94.16
71857;BME280;63344;46.980;28.882;2023-04-06T06:04:38;99642.38;;;2.36;94.38
71857;BME280;63344;46.980;28.882;2023-04-06T06:07:05;99625.88;;;2.31;94.76
71857;BME280;63344;46.980;28.882;2023-04-06T06:09:37;99625.81;;;2.34;95.19
71857;BME280;63344;46.980;28.882;2023-04-06T06:12:04;99636.28;;;2.36;95.13
71857;BME280;63344;46.980;28.882;2023-04-06T06:14:31;99645.81;;;2.38;95.17
71857;BME280;63344;46.980;28.882;2023-04-06T06:17:00;99639.66;;;2.39;94.79
71857;BME280;63344;46.980;28.882;2023-04-06T06:19:27;99642.06;;;2.50;95.30
71857;BME280;63344;46.980;28.882;2023-04-06T06:21:54;99643.72;;;2.54;95.16
71857;BME280;63344;46.980;28.882;2023-04-06T06:24:21;99647.06;;;2.61;95.04
71857;BME280;63344;46.980;28.882;2023-04-06T06:26:49;99638.28;;;2.64;94.66
71857;BME280;63344;46.980;28.882;2023-04-06T06:29:16;99637.25;;;2.69;94.29
71857;BME280;63344;46.980;28.882;2023-04-06T06:31:43;99648.38;;;2.81;94.45
71857;BME280;63344;46.980;28.882;2023-04-06T06:34:10;99660.41;;;2.89;94.22
71857;BME280;63344;46.980;28.882;2023-04-06T06:36:40;99659.34;;;2.98;94.08
71857;BME280;63344;46.980;28.882;2023-04-06T06:39:07;99654.03;;;2.99;93.65
71857;BME280;63344;46.980;28.882;2023-04-06T06:41:35;99657.53;;;3.02;93.44
71857;BME280;63344;46.980;28.882;2023-04-06T06:44:02;99670.50;;;3.08;93.20
71857;BME280;63344;46.980;28.882;2023-04-06T06:46:31;99662.50;;;3.12;92.93
71857;BME280;63344;46.980;28.882;2023-04-06T06:48:58;99665.94;;;3.14;92.54
71857;BME280;63344;46.980;28.882;2023-04-06T06:51:28;99666.78;;;3.16;92.41
71857;BME280;63344;46.980;28.882;2023-04-06T06:53:55;99684.31;;;3.14;91.99
71857;BME280;63344;46.980;28.882;2023-04-06T06:56:27;99675.75;;;3.08;92.00
71857;BME280;63344;46.980;28.882;2023-04-06T06:58:54;99677.41;;;3.10;92.26
71857;BME280;63344;46.980;28.882;2023-04-06T07:01:25;99693.06;;;3.13;92.36
71857;BME280;63344;46.980;28.882;2023-04-06T07:03:52;99694.81;;;3.14;92.81
71857;BME280;63344;46.980;28.882;2023-04-06T07:06:20;99694.88;;;3.11;92.30
71857;BME280;63344;46.980;28.882;2023-04-06T07:08:47;99694.84;;;3.13;92.52
71857;BME280;63344;46.980;28.882;2023-04-06T07:11:14;99692.34;;;3.08;92.15
71857;BME280;63344;46.980;28.882;2023-04-06T07:13:42;99696.72;;;3.08;92.71
71857;BME280;63344;46.980;28.882;2023-04-06T07:16:10;99697.59;;;3.07;93.01
71857;BME280;63344;46.980;28.882;2023-04-06T07:18:39;99707.09;;;3.12;93.13
71857;BME280;63344;46.980;28.882;2023-04-06T07:21:08;99706.13;;;3.16;93.48
71857;BME280;63344;46.980;28.882;2023-04-06T07:23:35;99687.66;;;3.21;93.45
71857;BME280;63344;46.980;28.882;2023-04-06T07:26:02;99700.59;;;3.29;93.10
71857;BME280;63344;46.980;28.882;2023-04-06T07:28:29;99701.38;;;3.32;92.64
71857;BME280;63344;46.980;28.882;2023-04-06T07:30:59;99706.66;;;3.31;92.17
71857;BME280;63344;46.980;28.882;2023-04-06T07:33:26;99714.53;;;3.31;91.95
71857;BME280;63344;46.980;28.882;2023-04-06T07:35:57;99714.47;;;3.34;91.67
71857;BME280;63344;46.980;28.882;2023-04-06T07:38:25;99727.31;;;3.45;92.08
71857;BME280;63344;46.980;28.882;2023-04-06T07:40:56;99721.06;;;3.50;91.88
71857;BME280;63344;46.980;28.882;2023-04-06T07:43:24;99722.78;;;3.51;91.22
71857;BME280;63344;46.980;28.882;2023-04-06T07:45:51;99721.09;;;3.49;91.20
71857;BME280;63344;46.980;28.882;2023-04-06T07:48:18;99727.31;;;3.45;90.63
71857;BME280;63344;46.980;28.882;2023-04-06T07:50:46;99724.72;;;3.43;91.40
71857;BME280;63344;46.980;28.882;2023-04-06T07:53:13;99731.03;;;3.36;90.88
71857;BME280;63344;46.980;28.882;2023-04-06T07:55:43;99740.78;;;3.31;90.71
71857;BME280;63344;46.980;28.882;2023-04-06T07:58:10;99735.50;;;3.32;91.43
71857;BME280;63344;46.980;28.882;2023-04-06T08:00:38;99733.56;;;3.41;91.93
71857;BME280;63344;46.980;28.882;2023-04-06T08:03:05;99741.31;;;3.45;91.75
71857;BME280;63344;46.980;28.882;2023-04-06T08:05:33;99739.50;;;3.47;91.60
71857;BME280;63344;46.980;28.882;2023-04-06T08:08:00;99747.31;;;3.50;91.25
71857;BME280;63344;46.980;28.882;2023-04-06T08:10:27;99749.81;;;3.55;90.88
71857;BME280;63344;46.980;28.882;2023-04-06T08:12:54;99745.38;;;3.58;90.47
71857;BME280;63344;46.980;28.882;2023-04-06T08:15:21;99754.75;;;3.69;90.33
71857;BME280;63344;46.980;28.882;2023-04-06T08:17:48;99750.25;;;3.74;90.33
71857;BME280;63344;46.980;28.882;2023-04-06T08:20:16;99752.69;;;3.82;90.08
71857;BME280;63344;46.980;28.882;2023-04-06T08:22:43;99753.50;;;3.84;89.51
71857;BME280;63344;46.980;28.882;2023-04-06T08:25:10;99752.72;;;3.80;88.66
71857;BME280;63344;46.980;28.882;2023-04-06T08:27:37;99758.84;;;3.79;88.86
71857;BME280;63344;46.980;28.882;2023-04-06T08:30:05;99756.16;;;3.82;89.16
71857;BME280;63344;46.980;28.882;2023-04-06T08:32:33;99757.63;;;3.94;88.77
71857;BME280;63344;46.980;28.882;2023-04-06T08:35:00;99760.00;;;4.03;88.85
71857;BME280;63344;46.980;28.882;2023-04-06T08:37:27;99758.16;;;4.07;88.55
71857;BME280;63344;46.980;28.882;2023-04-06T08:39:57;99759.91;;;4.08;87.86
71857;BME280;63344;46.980;28.882;2023-04-06T08:42:25;99769.00;;;3.93;87.35
71857;BME280;63344;46.980;28.882;2023-04-06T08:45:11;99770.72;;;3.95;87.97
71857;BME280;63344;46.980;28.882;2023-04-06T08:47:39;99782.00;;;3.99;88.05
71857;BME280;63344;46.980;28.882;2023-04-06T08:50:07;99778.38;;;4.03;87.88
71857;BME280;63344;46.980;28.882;2023-04-06T08:52:35;99781.81;;;4.07;87.53
71857;BME280;63344;46.980;28.882;2023-04-06T08:55:05;99781.94;;;4.02;87.01
71857;BME280;63344;46.980;28.882;2023-04-06T08:57:35;99789.78;;;4.04;86.61
71857;BME280;63344;46.980;28.882;2023-04-06T09:00:09;99789.63;;;4.10;86.79
71857;BME280;63344;46.980;28.882;2023-04-06T09:02:42;99792.97;;;4.15;86.79
71857;BME280;63344;46.980;28.882;2023-04-06T09:05:10;99789.34;;;4.19;86.34
71857;BME280;63344;46.980;28.882;2023-04-06T09:07:40;99797.31;;;4.17;85.88
71857;BME280;63344;46.980;28.882;2023-04-06T09:10:08;99808.00;;;4.10;85.71
71857;BME280;63344;46.980;28.882;2023-04-06T09:12:35;99801.28;;;3.99;85.34
71857;BME280;63344;46.980;28.882;2023-04-06T09:15:03;99817.09;;;3.96;85.89
71857;BME280;63344;46.980;28.882;2023-04-06T09:17:32;99804.88;;;3.95;86.51
71857;BME280;63344;46.980;28.882;2023-04-06T09:20:04;99812.66;;;3.98;87.06
71857;BME280;63344;46.980;28.882;2023-04-06T09:22:37;99826.47;;;4.07;86.74
71857;BME280;63344;46.980;28.882;2023-04-06T09:25:05;99801.88;;;4.09;86.24
71857;BME280;63344;46.980;28.882;2023-04-06T09:27:36;99817.72;;;4.06;85.69
71857;BME280;63344;46.980;28.882;2023-04-06T09:30:07;99820.31;;;4.08;85.75
71857;BME280;63344;46.980;28.882;2023-04-06T09:32:49;99824.75;;;4.06;85.45
71857;BME280;63344;46.980;28.882;2023-04-06T09:35:18;99831.75;;;4.05;85.33
71857;BME280;63344;46.980;28.882;2023-04-06T09:37:53;99833.56;;;4.03;84.95
71857;BME280;63344;46.980;28.882;2023-04-06T09:40:27;99838.09;;;3.96;84.80
71857;BME280;63344;46.980;28.882;2023-04-06T09:42:56;99836.44;;;3.94;84.71
71857;BME280;63344;46.980;28.882;2023-04-06T09:45:27;99845.28;;;3.90;84.35
71857;BME280;63344;46.980;28.882;2023-04-06T09:47:56;99847.84;;;3.91;84.79
71857;BME280;63344;46.980;28.882;2023-04-06T09:50:33;99845.19;;;3.93;84.43
71857;BME280;63344;46.980;28.882;2023-04-06T09:53:02;99849.59;;;3.92;84.08
71857;BME280;63344;46.980;28.882;2023-04-06T09:55:36;99852.19;;;3.94;84.16
71857;BME280;63344;46.980;28.882;2023-04-06T09:58:20;99857.41;;;3.95;84.22
71857;BME280;63344;46.980;28.882;2023-04-06T10:01:07;99858.91;;;4.06;84.43
71857;BME280;63344;46.980;28.882;2023-04-06T10:03:52;99865.00;;;4.08;83.67
71857;BME280;63344;46.980;28.882;2023-04-06T10:06:23;99876.22;;;4.14;83.50
71857;BME280;63344;46.980;28.882;2023-04-06T10:08:54;99872.63;;;4.17;83.53
71857;BME280;63344;46.980;28.882;2023-04-06T10:11:23;99873.44;;;4.21;82.93
71857;BME280;63344;46.980;28.882;2023-04-06T10:13:51;99883.91;;;4.22;82.02
71857;BME280;63344;46.980;28.882;2023-04-06T10:16:22;99870.00;;;4.17;81.39
71857;BME280;63344;46.980;28.882;2023-04-06T10:19:11;99871.81;;;4.15;81.81
71857;BME280;63344;46.980;28.882;2023-04-06T10:21:48;99877.56;;;4.29;82.18
71857;BME280;63344;46.980;28.882;2023-04-06T10:24:17;99865.31;;;4.30;80.98
71857;BME280;63344;46.980;28.882;2023-04-06T10:27:02;99880.13;;;4.32;80.70
71857;BME280;63344;46.980;28.882;2023-04-06T10:29:43;99878.19;;;4.41;81.02
71857;BME280;63344;46.980;28.882;2023-04-06T10:32:11;99867.44;;;4.50;80.18
71857;BME280;63344;46.980;28.882;2023-04-06T10:34:39;99887.69;;;4.46;79.66
71857;BME280;63344;46.980;28.882;2023-04-06T10:37:13;99886.72;;;4.49;78.77
71857;BME280;63344;46.980;28.882;2023-04-06T10:40:18;99890.19;;;4.51;78.52
71857;BME280;63344;46.980;28.882;2023-04-06T10:42:45;99897.09;;;4.55;78.34
71857;BME280;63344;46.980;28.882;2023-04-06T10:45:24;99897.91;;;4.57;78.70
71857;BME280;63344;46.980;28.882;2023-04-06T10:47:54;99903.97;;;4.61;78.37
71857;BME280;63344;46.980;28.882;2023-04-06T10:50:22;99903.91;;;4.62;78.92
71857;BME280;63344;46.980;28.882;2023-04-06T10:53:00;99913.88;;;4.49;78.99
71857;BME280;63344;46.980;28.882;2023-04-06T10:55:29;99909.81;;;4.37;78.68
71857;BME280;63344;46.980;28.882;2023-04-06T10:57:56;99910.72;;;4.35;79.46
71857;BME280;63344;46.980;28.882;2023-04-06T11:00:25;99916.06;;;4.33;78.52
71857;BME280;63344;46.980;28.882;2023-04-06T11:03:05;99905.44;;;4.36;78.33
71857;BME280;63344;46.980;28.882;2023-04-06T11:05:33;99919.44;;;4.37;78.64
71857;BME280;63344;46.980;28.882;2023-04-06T11:08:00;99910.56;;;4.41;79.04
71857;BME280;63344;46.980;28.882;2023-04-06T11:10:28;99911.50;;;4.40;78.77
71857;BME280;63344;46.980;28.882;2023-04-06T11:12:56;99907.13;;;4.39;78.78
71857;BME280;63344;46.980;28.882;2023-04-06T11:15:24;99924.00;;;4.30;79.08
71857;BME280;63344;46.980;28.882;2023-04-06T11:17:51;99916.25;;;4.26;79.29
71857;BME280;63344;46.980;28.882;2023-04-06T11:20:19;99921.50;;;4.26;79.40
71857;BME280;63344;46.980;28.882;2023-04-06T11:22:51;99924.00;;;4.30;78.90
71857;BME280;63344;46.980;28.882;2023-04-06T11:25:18;99940.53;;;4.35;78.96
71857;BME280;63344;46.980;28.882;2023-04-06T11:27:47;99936.78;;;4.46;79.46
71857;BME280;63344;46.980;28.882;2023-04-06T11:30:15;99938.44;;;4.50;78.91
71857;BME280;63344;46.980;28.882;2023-04-06T11:32:45;99947.97;;;4.54;79.03
71857;BME280;63344;46.980;28.882;2023-04-06T11:35:20;99950.84;;;4.43;78.29
71857;BME280;63344;46.980;28.882;2023-04-06T11:37:51;99953.88;;;4.26;79.06
71857;BME280;63344;46.980;28.882;2023-04-06T11:40:22;99962.63;;;4.27;79.73
71857;BME280;63344;46.980;28.882;2023-04-06T11:42:52;99969.94;;;4.14;79.52
71857;BME280;63344;46.980;28.882;2023-04-06T11:45:20;99973.41;;;4.16;79.98
71857;BME280;63344;46.980;28.882;2023-04-06T11:47:59;99985.56;;;4.20;80.29
71857;BME280;63344;46.980;28.882;2023-04-06T11:50:32;99989.06;;;4.21;79.94
71857;BME280;63344;46.980;28.882;2023-04-06T11:53:02;99984.09;;;4.08;79.54
71857;BME280;63344;46.980;28.882;2023-04-06T11:55:37;99974.59;;;4.01;78.98
71857;BME280;63344;46.980;28.882;2023-04-06T11:58:05;99989.50;;;4.01;79.23
71857;BME280;63344;46.980;28.882;2023-04-06T12:00:36;99982.34;;;4.07;78.96
71857;BME280;63344;46.980;28.882;2023-04-06T12:03:04;100005.28;;;4.01;79.01
71857;BME280;63344;46.980;28.882;2023-04-06T12:05:33;100008.75;;;4.01;78.64
71857;BME280;63344;46.980;28.882;2023-04-06T12:08:00;100002.66;;;3.99;78.85
71857;BME280;63344;46.980;28.882;2023-04-06T12:10:29;100006.13;;;4.01;78.89
71857;BME280;63344;46.980;28.882;2023-04-06T12:13:00;100008.72;;;4.03;79.20
71857;BME280;63344;46.980;28.882;2023-04-06T12:15:28;100013.78;;;4.12;79.79
71857;BME280;63344;46.980;28.882;2023-04-06T12:17:55;100012.66;;;4.24;79.27
71857;BME280;63344;46.980;28.882;2023-04-06T12:20:22;100017.69;;;4.33;78.80
71857;BME280;63344;46.980;28.882;2023-04-06T12:22:53;100032.47;;;4.38;77.45
71857;BME280;63344;46.980;28.882;2023-04-06T12:25:20;100029.81;;;4.40;78.22
71857;BME280;63344;46.980;28.882;2023-04-06T12:27:48;100029.09;;;4.33;77.01
71857;BME280;63344;46.980;28.882;2023-04-06T12:30:15;100038.09;;;4.22;77.28
71857;BME280;63344;46.980;28.882;2023-04-06T12:32:42;100040.81;;;4.17;77.45
71857;BME280;63344;46.980;28.882;2023-04-06T12:35:09;100016.47;;;4.09;77.38
71857;BME280;63344;46.980;28.882;2023-04-06T12:37:38;100041.16;;;4.02;77.11
71857;BME280;63344;46.980;28.882;2023-04-06T12:40:08;100042.09;;;3.99;77.87
71857;BME280;63344;46.980;28.882;2023-04-06T12:42:39;100042.31;;;3.88;78.01
71857;BME280;63344;46.980;28.882;2023-04-06T12:45:08;100040.66;;;3.84;77.90
71857;BME280;63344;46.980;28.882;2023-04-06T12:47:35;100039.00;;;3.80;78.58
71857;BME280;63344;46.980;28.882;2023-04-06T12:50:04;100043.47;;;3.73;78.48
71857;BME280;63344;46.980;28.882;2023-04-06T12:52:35;100039.28;;;3.65;78.91
71857;BME280;63344;46.980;28.882;2023-04-06T12:55:03;100038.34;;;3.69;79.28
71857;BME280;63344;46.980;28.882;2023-04-06T12:57:32;100052.53;;;3.60;79.03
71857;BME280;63344;46.980;28.882;2023-04-06T12:59:59;100064.72;;;3.63;79.67
71857;BME280;63344;46.980;28.882;2023-04-06T13:02:31;100079.50;;;3.67;79.94
71857;BME280;63344;46.980;28.882;2023-04-06T13:05:03;100087.34;;;3.70;80.21
71857;BME280;63344;46.980;28.882;2023-04-06T13:07:31;100082.13;;;3.68;79.82
71857;BME280;63344;46.980;28.882;2023-04-06T13:09:58;100082.25;;;3.61;79.53